Sea-land Charger — WDB9948 — position and weather

sailwx.info

Track history (hours):
 
Tides and Currents Weather Stations Pressure Air Temp Water Temp Dewpoint Dewpoint Depression Visibility Wind Speed Wind Dir Waves Ship Positions

Sea-land Charger

Owner: MAERSK LINE, LIMITED, NORFOLK, VA. More information available from US FCC via Universal Licensing System.

Last reported at 2015-Aug-12 11:03 UTC. Time now 2015-Aug-28 00:17 UTC.
Position N 36°24' E 123°45'.
Warning: this ship's position is 15 days out of date.

Type: Cargo ship. MMSI: 303279000.

Date/timePositionNaut miles runAvg speedWind from/ knotsBaromVisibWave heightAir tempDewpointWater temp
2015-Aug-12 11:03N 36°24' E 123°45'713.8
2015-Aug-12 10:32N 36°31' E 123°44'1412.8
2015-Aug-12 09:26N 36°45' E 123°38'1112.4
2015-Aug-12 08:32N 36°55' E 123°33'1512.4
2015-Aug-12 07:19N 37°09' E 123°27'912.4
2015-Aug-12 06:33N 37°18' E 123°22'1612.4
2015-Aug-12 05:15N 37°33' E 123°17'2112.4
2015-Aug-12 03:33N 37°46' E 122°56'1513.3
2015-Aug-12 02:26N 37°54' E 122°40'1112.7
2015-Aug-12 01:33N 37°57' E 122°27'1312.6
2015-Aug-12 00:33N 38°03' E 122°12'1312.4
2015-Aug-11 23:33N 38°09' E 121°58'1312.8
2015-Aug-11 22:33N 38°14' E 121°43'1513.4
2015-Aug-11 21:28N 38°19' E 121°26'1213.6
2015-Aug-11 20:33N 38°26' E 121°13'1514.3
2015-Aug-11 19:31N 38°32' E 120°56'1111.5
2015-Aug-11 18:33N 38°35' E 120°42'1514.6
2015-Aug-11 17:32N 38°37' E 120°23'1513.9
2015-Aug-11 16:29N 38°39' E 120°04'1313.5
2015-Aug-11 15:33N 38°41' E 119°48'1313.4
2015-Aug-11 14:33N 38°42' E 119°31'1413.3
2015-Aug-11 13:29N 38°44' E 119°13'1213.5
2015-Aug-11 12:34N 38°46' E 118°58'1413.6
2015-Aug-11 11:33N 38°48' E 118°40'1414.1
2015-Aug-11 10:32N 38°50' E 118°22'1613.2
2015-Aug-11 09:21N 38°55' E 118°03'911.2
2015-Aug-11 08:33N 38°57' E 117°52'5 4.8
2015-Aug-11 07:33N 38°60' E 117°47'0 0.0
2015-Aug-11 06:33N 38°60' E 117°47'0 0.0
2015-Aug-11 05:33N 38°60' E 117°47'0 0.0
2015-Aug-11 04:33N 38°60' E 117°47'0 0.0
2015-Aug-11 03:33N 38°60' E 117°47'0 0.0
2015-Aug-11 02:33N 38°60' E 117°47'0 0.0
2015-Aug-11 01:09N 38°60' E 117°47'0 0.0
2015-Aug-11 00:27N 38°60' E 117°47'0 0.0
2015-Aug-10 23:33N 38°60' E 117°47'0 0.0
2015-Aug-10 22:33N 38°60' E 117°47'0 0.0
2015-Aug-10 21:33N 38°60' E 117°47'0 0.0
2015-Aug-10 20:33N 38°60' E 117°47'0 0.0
2015-Aug-10 19:21N 38°60' E 117°47'0 0.0
2015-Aug-10 18:33N 38°60' E 117°47'0 0.0
2015-Aug-10 17:33N 38°60' E 117°47'0 0.0
2015-Aug-10 16:27N 38°60' E 117°47'0 0.0
2015-Aug-10 15:21N 38°60' E 117°47'4 4.9
2015-Aug-10 14:33N 38°58' E 117°51'10911.8
2015-Aug-10 05:18N 38°44' E 120°10'1111.7
2015-Aug-10 04:23N 38°41' E 120°24'4811.4
2015-Aug-10 00:12N 38°25' E 121°22'2515.2
2015-Aug-09 22:34N 38°14' E 121°50'1915.0
2015-Aug-09 21:20N 38°05' E 122°11'1714.9
2015-Aug-09 20:13N 37°57' E 122°29'1014.8
2015-Aug-09 19:32N 37°52' E 122°40'1515.3
2015-Aug-09 18:34N 37°46' E 122°57'1615.4
2015-Aug-09 17:32N 37°38' E 123°15'1616.2
2015-Aug-09 16:33N 37°23' E 123°16'1915.3
2015-Aug-09 15:18N 37°04' E 123°13'1114.7
2015-Aug-09 14:32N 36°54' E 123°06'1414.1
2015-Aug-09 13:34N 36°41' E 123°00'1612.3
2015-Aug-09 12:15N 36°29' E 122°47'  
2015-Aug-05 21:30N 24°01' E 118°37'1718.3
2015-Aug-05 20:33N 23°49' E 118°23'  
Track history (hours):
 
Tides and Currents Weather Stations Pressure Air Temp Water Temp Dewpoint Dewpoint Depression Visibility Wind Speed Wind Dir Waves Ship Positions

Sea-land Charger

Owner: MAERSK LINE, LIMITED, NORFOLK, VA. More information available from US FCC via Universal Licensing System.

Last reported at 2015-Aug-12 11:03 UTC. Time now 2015-Aug-28 00:17 UTC.
Position N 36°24' E 123°45'.
Warning: this ship's position is 15 days out of date.

Type: Cargo ship. MMSI: 303279000.

Date/timePositionNaut miles runAvg speedWind from/ knotsBaromVisibWave heightAir tempDewpointWater temp
2015-Aug-12 11:03N 36°24' E 123°45'713.8
2015-Aug-12 10:32N 36°31' E 123°44'1412.8
2015-Aug-12 09:26N 36°45' E 123°38'1112.4
2015-Aug-12 08:32N 36°55' E 123°33'1512.4
2015-Aug-12 07:19N 37°09' E 123°27'912.4
2015-Aug-12 06:33N 37°18' E 123°22'1612.4
2015-Aug-12 05:15N 37°33' E 123°17'2112.4
2015-Aug-12 03:33N 37°46' E 122°56'1513.3
2015-Aug-12 02:26N 37°54' E 122°40'1112.7
2015-Aug-12 01:33N 37°57' E 122°27'1312.6
2015-Aug-12 00:33N 38°03' E 122°12'1312.4
2015-Aug-11 23:33N 38°09' E 121°58'1312.8
2015-Aug-11 22:33N 38°14' E 121°43'1513.4
2015-Aug-11 21:28N 38°19' E 121°26'1213.6
2015-Aug-11 20:33N 38°26' E 121°13'1514.3
2015-Aug-11 19:31N 38°32' E 120°56'1111.5
2015-Aug-11 18:33N 38°35' E 120°42'1514.6
2015-Aug-11 17:32N 38°37' E 120°23'1513.9
2015-Aug-11 16:29N 38°39' E 120°04'1313.5
2015-Aug-11 15:33N 38°41' E 119°48'1313.4
2015-Aug-11 14:33N 38°42' E 119°31'1413.3
2015-Aug-11 13:29N 38°44' E 119°13'1213.5
2015-Aug-11 12:34N 38°46' E 118°58'1413.6
2015-Aug-11 11:33N 38°48' E 118°40'1414.1
2015-Aug-11 10:32N 38°50' E 118°22'1613.2
2015-Aug-11 09:21N 38°55' E 118°03'911.2
2015-Aug-11 08:33N 38°57' E 117°52'5 4.8
2015-Aug-11 07:33N 38°60' E 117°47'0 0.0
2015-Aug-11 06:33N 38°60' E 117°47'0 0.0
2015-Aug-11 05:33N 38°60' E 117°47'0 0.0
2015-Aug-11 04:33N 38°60' E 117°47'0 0.0
2015-Aug-11 03:33N 38°60' E 117°47'0 0.0
2015-Aug-11 02:33N 38°60' E 117°47'0 0.0
2015-Aug-11 01:09N 38°60' E 117°47'0 0.0
2015-Aug-11 00:27N 38°60' E 117°47'0 0.0
2015-Aug-10 23:33N 38°60' E 117°47'0 0.0
2015-Aug-10 22:33N 38°60' E 117°47'0 0.0
2015-Aug-10 21:33N 38°60' E 117°47'0 0.0
2015-Aug-10 20:33N 38°60' E 117°47'0 0.0
2015-Aug-10 19:21N 38°60' E 117°47'0 0.0
2015-Aug-10 18:33N 38°60' E 117°47'0 0.0
2015-Aug-10 17:33N 38°60' E 117°47'0 0.0
2015-Aug-10 16:27N 38°60' E 117°47'0 0.0
2015-Aug-10 15:21N 38°60' E 117°47'4 4.9
2015-Aug-10 14:33N 38°58' E 117°51'10911.8
2015-Aug-10 05:18N 38°44' E 120°10'1111.7
2015-Aug-10 04:23N 38°41' E 120°24'4811.4
2015-Aug-10 00:12N 38°25' E 121°22'2515.2
2015-Aug-09 22:34N 38°14' E 121°50'1915.0
2015-Aug-09 21:20N 38°05' E 122°11'1714.9
2015-Aug-09 20:13N 37°57' E 122°29'1014.8
2015-Aug-09 19:32N 37°52' E 122°40'1515.3
2015-Aug-09 18:34N 37°46' E 122°57'1615.4
2015-Aug-09 17:32N 37°38' E 123°15'1616.2
2015-Aug-09 16:33N 37°23' E 123°16'1915.3
2015-Aug-09 15:18N 37°04' E 123°13'1114.7
2015-Aug-09 14:32N 36°54' E 123°06'1414.1
2015-Aug-09 13:34N 36°41' E 123°00'1612.3
2015-Aug-09 12:15N 36°29' E 122°47'  
2015-Aug-05 21:30N 24°01' E 118°37'1718.3
2015-Aug-05 20:33N 23°49' E 118°23'  

Dump ship's entire track history